createdAt,value
2023-10-11T00:01:07.345Z,45.69
2023-10-11T00:03:54.831Z,45.91
2023-10-11T00:06:32.263Z,46.02
2023-10-11T00:09:14.668Z,45.96
2023-10-11T00:11:47.368Z,45.79
2023-10-11T00:14:16.452Z,45.88
2023-10-11T00:16:48.541Z,46.22
2023-10-11T00:19:30.852Z,46.52
2023-10-11T00:22:00.061Z,46.78
2023-10-11T00:24:31.825Z,47.11
2023-10-11T00:27:02.195Z,47.10
2023-10-11T00:29:32.256Z,47.29
2023-10-11T00:32:04.447Z,47.48
2023-10-11T00:34:38.322Z,47.37
2023-10-11T00:37:07.676Z,47.23
2023-10-11T00:39:37.734Z,47.33
2023-10-11T00:42:10.299Z,47.49
2023-10-11T00:44:40.667Z,47.69
2023-10-11T00:47:13.056Z,47.79
2023-10-11T00:49:42.499Z,47.84
2023-10-11T00:52:11.559Z,47.98
2023-10-11T00:54:50.669Z,48.23
2023-10-11T00:57:20.889Z,48.46
2023-10-11T00:59:54.090Z,48.66
2023-10-11T01:02:53.043Z,48.68
2023-10-11T01:05:29.083Z,48.97
2023-10-11T01:08:19.038Z,49.07
2023-10-11T01:11:30.561Z,49.34
2023-10-11T01:14:02.691Z,49.53
2023-10-11T01:16:46.135Z,49.64
2023-10-11T01:26:17.553Z,50.27
2023-10-11T01:28:53.374Z,50.60
2023-10-11T01:32:48.437Z,50.87
2023-10-11T01:38:13.931Z,51.28
2023-10-11T01:40:45.643Z,51.37
2023-10-11T01:43:14.968Z,51.42
2023-10-11T01:45:54.217Z,51.62
2023-10-11T01:48:37.580Z,51.86
2023-10-11T01:51:13.620Z,51.98
2023-10-11T01:53:48.743Z,52.12
2023-10-11T01:56:20.109Z,52.22
2023-10-11T01:58:49.871Z,52.29
2023-10-11T02:04:42.680Z,52.55
2023-10-11T02:07:17.028Z,52.76
2023-10-11T02:09:46.284Z,52.96
2023-10-11T02:12:19.946Z,53.18
2023-10-11T02:14:55.569Z,53.39
2023-10-11T02:17:47.810Z,53.52
2023-10-11T02:20:25.179Z,53.67
2023-10-11T02:23:09.414Z,53.78
2023-10-11T02:25:45.476Z,53.71
2023-10-11T02:28:25.300Z,53.62
2023-10-11T02:34:37.114Z,54.06
2023-10-11T02:40:40.047Z,54.00
2023-10-11T02:43:46.672Z,54.11
2023-10-11T02:46:21.879Z,54.23
2023-10-11T02:49:51.957Z,54.40
2023-10-11T02:53:08.699Z,54.68
2023-10-11T02:59:14.154Z,55.10
2023-10-11T03:04:59.770Z,55.30
2023-10-11T03:07:35.637Z,55.21
2023-10-11T03:10:18.526Z,55.23
2023-10-11T03:12:57.756Z,55.35
2023-10-11T03:15:33.677Z,55.29
2023-10-11T03:18:11.272Z,55.33
2023-10-11T03:20:43.205Z,55.40
2023-10-11T03:23:27.447Z,55.44
2023-10-11T03:25:57.800Z,55.58
2023-10-11T03:28:28.659Z,55.33
2023-10-11T03:30:58.127Z,55.19
2023-10-11T03:33:28.535Z,55.35
2023-10-11T03:36:06.439Z,55.50
2023-10-11T03:39:03.380Z,55.69
2023-10-11T03:41:41.053Z,55.68
2023-10-11T03:44:12.858Z,55.65
2023-10-11T03:46:49.458Z,55.74
2023-10-11T03:49:23.530Z,55.89
2023-10-11T03:51:54.425Z,55.97
2023-10-11T03:54:29.626Z,56.03
2023-10-11T03:56:59.334Z,56.05
2023-10-11T03:59:29.218Z,56.08
2023-10-11T04:02:02.434Z,56.13
2023-10-11T04:04:34.667Z,56.22
2023-10-11T04:07:11.735Z,56.24
2023-10-11T04:09:47.570Z,56.24
2023-10-11T04:12:27.274Z,56.37
2023-10-11T04:15:00.110Z,56.30
2023-10-11T04:17:33.500Z,55.91
2023-10-11T04:20:20.008Z,55.91
2023-10-11T04:23:03.814Z,55.99
2023-10-11T04:25:34.861Z,56.06
2023-10-11T04:28:07.835Z,56.08
2023-10-11T04:30:47.016Z,56.04
2023-10-11T04:33:25.612Z,56.10
2023-10-11T04:36:10.950Z,56.24
2023-10-11T04:38:50.134Z,56.27
2023-10-11T04:41:21.587Z,56.27
2023-10-11T04:43:53.668Z,56.22
2023-10-11T04:46:40.573Z,56.28
2023-10-11T04:49:23.811Z,56.14
2023-10-11T04:52:02.223Z,56.06
2023-10-11T04:54:44.551Z,56.09
2023-10-11T04:57:19.831Z,56.12
2023-10-11T04:59:52.533Z,56.04
2023-10-11T05:02:30.754Z,56.18
2023-10-11T05:05:01.403Z,56.34
2023-10-11T05:07:34.580Z,56.42
2023-10-11T05:10:39.384Z,56.41
2023-10-11T05:13:19.443Z,56.22
2023-10-11T05:16:05.262Z,56.24
2023-10-11T05:18:42.658Z,56.39
2023-10-11T05:21:19.273Z,56.35
2023-10-11T05:24:09.714Z,56.34
2023-10-11T05:26:52.678Z,56.45
2023-10-11T05:29:33.798Z,56.50
2023-10-11T05:32:32.043Z,56.54
2023-10-11T05:35:21.073Z,56.73
2023-10-11T05:38:09.565Z,56.92
2023-10-11T05:40:59.708Z,57.02
2023-10-11T05:43:47.940Z,57.10
2023-10-11T05:46:35.363Z,57.23
2023-10-11T05:49:23.040Z,57.24
2023-10-11T05:51:54.897Z,57.22
2023-10-11T05:54:36.347Z,57.20
2023-10-11T05:57:17.601Z,57.15
2023-10-11T06:00:07.740Z,57.03
2023-10-11T06:02:36.979Z,57.01
2023-10-11T06:05:12.796Z,57.12
2023-10-11T06:07:44.071Z,57.14
2023-10-11T06:10:22.189Z,57.18
2023-10-11T06:12:55.490Z,57.33
2023-10-11T06:15:25.623Z,57.42
2023-10-11T06:17:57.401Z,57.52
2023-10-11T06:20:51.629Z,57.63
2023-10-11T06:23:20.903Z,57.81
2023-10-11T06:25:58.403Z,58.07
2023-10-11T06:28:37.118Z,58.49
2023-10-11T06:31:09.057Z,58.73
2023-10-11T06:33:40.609Z,59.04
2023-10-11T06:36:16.640Z,59.28
2023-10-11T06:38:46.589Z,59.38
2023-10-11T06:41:48.293Z,59.28
2023-10-11T06:44:21.046Z,58.99
2023-10-11T06:46:52.906Z,58.90
2023-10-11T06:49:22.082Z,58.70
2023-10-11T06:51:53.190Z,58.57
2023-10-11T06:54:25.824Z,58.51
2023-10-11T06:56:55.234Z,58.45
2023-10-11T06:59:26.717Z,58.36
2023-10-11T07:01:55.880Z,58.05
2023-10-11T07:04:38.771Z,57.63
2023-10-11T07:07:09.910Z,57.30
2023-10-11T07:09:58.171Z,57.10
2023-10-11T07:12:41.854Z,56.90
2023-10-11T07:15:12.035Z,56.63
2023-10-11T07:17:41.043Z,56.64
2023-10-11T07:20:31.016Z,56.48
2023-10-11T07:23:00.142Z,56.40
2023-10-11T07:25:47.534Z,56.37
2023-10-11T07:28:20.541Z,56.38
2023-10-11T07:30:50.082Z,56.45
2023-10-11T07:33:21.005Z,56.47
2023-10-11T07:36:01.523Z,56.34
2023-10-11T07:38:37.095Z,56.39
2023-10-11T07:41:10.702Z,56.42
2023-10-11T07:43:44.390Z,56.41
2023-10-11T07:46:15.044Z,56.28
2023-10-11T07:48:45.627Z,56.19
2023-10-11T07:51:17.350Z,56.31
2023-10-11T07:53:46.830Z,56.16
2023-10-11T07:56:18.750Z,56.00
2023-10-11T07:58:56.519Z,55.95
2023-10-11T08:01:33.039Z,55.81
2023-10-11T08:04:10.836Z,55.71
2023-10-11T08:06:42.660Z,55.84
2023-10-11T08:09:21.405Z,55.98
2023-10-11T08:12:01.538Z,56.07
2023-10-11T08:14:34.667Z,56.20
2023-10-11T08:17:12.508Z,56.23
2023-10-11T08:19:46.563Z,56.45
2023-10-11T08:22:19.521Z,56.67
2023-10-11T08:24:58.782Z,56.85
2023-10-11T08:27:31.482Z,57.12
2023-10-11T08:30:18.216Z,57.39
2023-10-11T08:32:50.543Z,57.60
2023-10-11T08:35:28.660Z,57.86
2023-10-11T08:38:04.317Z,58.00
2023-10-11T08:40:50.380Z,58.11
2023-10-11T08:43:20.542Z,58.29
2023-10-11T08:46:07.772Z,58.47
2023-10-11T08:48:40.671Z,58.71
2023-10-11T08:51:13.753Z,58.84
2023-10-11T08:53:50.392Z,58.87
2023-10-11T08:56:25.281Z,59.14
2023-10-11T08:58:55.503Z,59.22
2023-10-11T09:01:27.195Z,59.40
2023-10-11T09:04:31.215Z,59.62
2023-10-11T09:07:06.073Z,59.81
2023-10-11T09:09:43.003Z,59.92
2023-10-11T09:12:28.374Z,60.08
2023-10-11T09:15:06.000Z,60.31
2023-10-11T09:17:41.053Z,60.42
2023-10-11T09:20:42.913Z,60.35
2023-10-11T09:23:22.953Z,60.35
2023-10-11T09:26:04.870Z,60.36
2023-10-11T09:28:42.984Z,60.26
2023-10-11T09:31:29.689Z,60.11
2023-10-11T09:34:10.154Z,59.95
2023-10-11T09:36:45.590Z,59.91
2023-10-11T09:39:18.724Z,59.91
2023-10-11T09:41:56.282Z,59.97
2023-10-11T09:44:45.467Z,59.98
2023-10-11T09:47:19.012Z,59.97
2023-10-11T09:49:56.165Z,59.98
2023-10-11T09:52:26.079Z,59.90
2023-10-11T09:55:11.255Z,60.01
2023-10-11T09:58:01.840Z,60.18
2023-10-11T10:01:00.160Z,60.19
2023-10-11T10:03:29.352Z,60.24
2023-10-11T10:06:21.179Z,60.20
2023-10-11T10:09:37.330Z,60.25
2023-10-11T10:12:09.188Z,60.31
2023-10-11T10:14:44.473Z,60.35
2023-10-11T10:17:19.374Z,60.40
2023-10-11T10:19:51.710Z,60.47
2023-10-11T10:22:30.638Z,60.51
2023-10-11T10:25:22.703Z,60.55
2023-10-11T10:27:58.252Z,60.58
2023-10-11T10:30:30.242Z,60.68
2023-10-11T10:33:23.578Z,60.69
2023-10-11T10:35:52.800Z,60.66
2023-10-11T10:38:25.597Z,60.68
2023-10-11T10:41:27.751Z,60.70
2023-10-11T10:44:26.359Z,60.78
2023-10-11T10:47:02.289Z,60.82
2023-10-11T10:49:49.421Z,60.84
2023-10-11T10:52:33.235Z,60.85
2023-10-11T10:55:11.713Z,61.03
2023-10-11T10:57:44.929Z,61.17
2023-10-11T11:00:25.587Z,61.27
2023-10-11T11:03:02.690Z,61.27
2023-10-11T11:05:42.046Z,61.39
2023-10-11T11:08:26.888Z,61.43
2023-10-11T11:11:27.982Z,61.71
2023-10-11T11:14:00.029Z,61.83
2023-10-11T11:16:31.315Z,62.01
2023-10-11T11:19:15.665Z,62.30
2023-10-11T11:21:52.883Z,62.40
2023-10-11T11:24:36.393Z,62.54
2023-10-11T11:27:43.977Z,62.63
2023-10-11T11:30:37.276Z,62.67
2023-10-11T11:33:51.997Z,62.86
2023-10-11T11:36:33.689Z,62.96
2023-10-11T11:39:29.128Z,63.05
2023-10-11T11:42:21.529Z,63.18
2023-10-11T11:44:51.916Z,63.26
2023-10-11T11:47:25.956Z,63.37
2023-10-11T11:50:07.102Z,63.43
2023-10-11T11:52:38.689Z,63.56
2023-10-11T11:55:13.902Z,63.85
2023-10-11T11:57:43.422Z,64.00
2023-10-11T12:00:27.892Z,63.95
2023-10-11T12:03:01.464Z,63.96
2023-10-11T12:05:32.197Z,63.94
2023-10-11T12:08:04.145Z,64.04
2023-10-11T12:10:39.128Z,64.06
2023-10-11T12:13:19.437Z,64.02
2023-10-11T12:15:58.152Z,64.03
2023-10-11T12:18:34.783Z,64.11
2023-10-11T12:21:13.685Z,64.12
2023-10-11T12:23:49.096Z,64.17
2023-10-11T12:26:28.486Z,64.17
2023-10-11T12:29:11.001Z,64.10
2023-10-11T12:32:09.749Z,64.09
2023-10-11T12:35:07.452Z,63.95
2023-10-11T12:37:44.358Z,63.98
2023-10-11T12:40:31.040Z,63.90
2023-10-11T12:43:09.742Z,63.71
2023-10-11T12:45:50.809Z,63.63
2023-10-11T12:48:23.078Z,63.64
2023-10-11T12:51:01.644Z,63.42
2023-10-11T12:53:39.257Z,63.48
2023-10-11T12:56:14.228Z,63.60
2023-10-11T12:58:56.302Z,63.61
2023-10-11T13:02:01.880Z,63.59
2023-10-11T13:04:37.124Z,63.86
2023-10-11T13:07:16.319Z,63.76
2023-10-11T13:09:46.146Z,63.90
2023-10-11T13:12:24.753Z,63.98
2023-10-11T13:15:22.580Z,64.10
2023-10-11T13:17:54.067Z,64.37
2023-10-11T13:20:34.795Z,64.47
2023-10-11T13:23:13.355Z,64.53
2023-10-11T13:25:46.727Z,64.49
2023-10-11T13:28:20.296Z,64.48
2023-10-11T13:31:08.269Z,64.46
2023-10-11T13:33:45.657Z,64.43
2023-10-11T13:36:24.007Z,64.57
2023-10-11T13:39:01.407Z,64.72
2023-10-11T13:41:31.639Z,64.79
2023-10-11T13:44:06.547Z,64.96
2023-10-11T13:46:39.448Z,65.09
2023-10-11T13:49:26.390Z,65.08
2023-10-11T13:52:09.213Z,65.11
2023-10-11T13:54:44.864Z,65.14
2023-10-11T13:57:39.481Z,65.07
2023-10-11T14:00:40.273Z,65.03
2023-10-11T14:03:49.015Z,65.09
2023-10-11T14:06:54.514Z,65.00
2023-10-11T14:09:34.536Z,65.01
2023-10-11T14:12:20.008Z,64.90
2023-10-11T14:14:49.060Z,64.91
2023-10-11T14:17:26.708Z,64.90
2023-10-11T14:19:57.134Z,64.90
2023-10-11T14:22:57.253Z,64.95
2023-10-11T14:25:26.625Z,64.95
2023-10-11T14:28:22.051Z,65.03
2023-10-11T14:31:05.105Z,65.00
2023-10-11T14:33:43.304Z,65.00
2023-10-11T14:36:28.914Z,64.91
2023-10-11T14:39:04.515Z,64.86
2023-10-11T14:42:02.715Z,64.87
2023-10-11T14:47:56.819Z,64.93
2023-10-11T14:50:29.776Z,64.90
2023-10-11T14:53:20.760Z,64.87
2023-10-11T14:56:56.591Z,64.73
2023-10-11T14:59:54.717Z,64.78
2023-10-11T15:03:58.830Z,64.77
2023-10-11T15:06:32.860Z,64.77
2023-10-11T15:09:34.531Z,64.66
2023-10-11T15:12:56.916Z,64.70
2023-10-11T15:15:34.312Z,64.60
2023-10-11T15:18:06.791Z,64.56
2023-10-11T15:20:56.246Z,64.37
2023-10-11T15:23:31.734Z,64.23
2023-10-11T15:26:07.402Z,64.24
2023-10-11T15:28:45.805Z,64.13
2023-10-11T15:31:20.973Z,64.13
2023-10-11T15:33:53.724Z,64.17
2023-10-11T15:36:45.724Z,64.04
2023-10-11T15:39:19.495Z,63.86
2023-10-11T15:42:00.532Z,63.78
2023-10-11T15:44:51.233Z,63.72
2023-10-11T15:47:45.424Z,63.55
2023-10-11T15:50:27.831Z,63.48
2023-10-11T15:53:08.906Z,63.60
2023-10-11T15:55:44.430Z,63.60
2023-10-11T15:58:19.989Z,63.46
2023-10-11T16:00:55.276Z,63.30
2023-10-11T16:03:30.386Z,63.29
2023-10-11T16:06:04.279Z,63.26
2023-10-11T16:08:39.103Z,63.35
2023-10-11T16:11:23.545Z,63.51
2023-10-11T16:14:27.961Z,63.52
2023-10-11T16:17:03.634Z,63.67
2023-10-11T16:19:36.185Z,63.88
2023-10-11T16:22:08.715Z,63.85
2023-10-11T16:24:49.879Z,64.13
2023-10-11T16:27:29.544Z,64.23
2023-10-11T16:30:18.096Z,64.29
2023-10-11T16:32:56.466Z,64.35
2023-10-11T16:35:30.213Z,64.39
2023-10-11T16:38:07.589Z,64.12
2023-10-11T16:40:37.119Z,64.07
2023-10-11T16:43:15.922Z,64.26
2023-10-11T16:45:48.232Z,64.03
2023-10-11T16:48:26.161Z,63.75
2023-10-11T16:51:07.782Z,63.72
2023-10-11T16:53:41.111Z,64.07
2023-10-11T16:56:17.796Z,64.28
2023-10-11T16:58:50.016Z,64.38
2023-10-11T17:01:28.672Z,64.54
2023-10-11T17:04:01.238Z,64.64
2023-10-11T17:06:39.478Z,64.28
2023-10-11T17:09:21.780Z,64.31
2023-10-11T17:12:07.004Z,64.79
2023-10-11T17:17:32.661Z,64.86
2023-10-11T17:20:18.691Z,64.96
2023-10-11T17:22:59.593Z,65.08
2023-10-11T17:25:41.295Z,64.85
2023-10-11T17:28:20.343Z,65.37
2023-10-11T17:30:50.048Z,65.50
2023-10-11T17:33:26.462Z,64.94
2023-10-11T17:36:01.217Z,65.65
2023-10-11T17:38:40.696Z,66.15
2023-10-11T17:41:23.335Z,65.44
2023-10-11T17:43:52.893Z,64.79
2023-10-11T17:46:27.391Z,65.16
2023-10-11T17:49:00.100Z,66.04
2023-10-11T17:51:34.946Z,65.70
2023-10-11T17:54:04.559Z,65.21
2023-10-11T17:56:40.995Z,65.52
2023-10-11T17:59:41.989Z,64.65
2023-10-11T18:02:05.072Z,64.49
2023-10-11T18:04:34.775Z,64.42
2023-10-11T18:07:10.746Z,64.23
2023-10-11T18:09:41.620Z,64.06
2023-10-11T18:12:11.314Z,63.96
2023-10-11T18:14:46.600Z,64.25
2023-10-11T18:17:18.880Z,63.14
2023-10-11T18:19:48.084Z,63.57
2023-10-11T18:22:20.095Z,63.74
2023-10-11T18:24:51.569Z,63.54
2023-10-11T18:27:22.777Z,63.02
2023-10-11T18:29:54.594Z,63.06
2023-10-11T18:32:24.801Z,62.79
2023-10-11T18:34:54.921Z,63.35
2023-10-11T18:37:24.000Z,62.87
2023-10-11T18:39:53.617Z,63.10
2023-10-11T18:42:22.932Z,63.15
2023-10-11T18:44:55.698Z,63.26
2023-10-11T18:47:25.418Z,62.72
2023-10-11T18:49:54.609Z,62.94
2023-10-11T18:52:24.967Z,62.58
2023-10-11T18:54:59.107Z,63.24
2023-10-11T18:57:28.190Z,62.75
2023-10-11T18:59:57.876Z,62.75
2023-10-11T19:02:27.290Z,61.38
2023-10-11T19:05:31.335Z,61.02
2023-10-11T19:08:01.166Z,62.23
2023-10-11T19:10:36.362Z,61.77
2023-10-11T19:13:05.453Z,61.85
2023-10-11T19:15:42.572Z,61.45
2023-10-11T19:18:33.898Z,60.63
2023-10-11T19:21:32.969Z,60.12
2023-10-11T19:24:10.998Z,60.48
2023-10-11T19:27:01.396Z,60.89
2023-10-11T19:29:46.702Z,60.45
2023-10-11T19:32:25.200Z,59.82
2023-10-11T19:34:56.489Z,59.96
2023-10-11T19:37:35.062Z,59.92
2023-10-11T19:40:30.121Z,60.08
2023-10-11T19:43:14.379Z,59.93
2023-10-11T19:45:52.399Z,59.26
2023-10-11T19:48:25.632Z,58.53
2023-10-11T19:51:04.310Z,57.99
2023-10-11T19:53:38.501Z,58.04
2023-10-11T19:56:39.740Z,58.49
2023-10-11T19:59:20.290Z,57.90
2023-10-11T20:02:03.904Z,57.65
2023-10-11T20:04:44.349Z,57.80
2023-10-11T20:07:29.202Z,57.96
2023-10-11T20:10:01.568Z,58.06
2023-10-11T20:13:09.052Z,57.88
2023-10-11T20:15:51.591Z,57.53
2023-10-11T20:18:33.788Z,57.54
2023-10-11T20:21:23.695Z,57.18
2023-10-11T20:24:01.715Z,57.12
2023-10-11T20:26:33.976Z,57.26
2023-10-11T20:29:06.355Z,57.52
2023-10-11T20:31:40.116Z,57.49
2023-10-11T20:34:17.930Z,57.35
2023-10-11T20:36:50.278Z,57.35
2023-10-11T20:39:32.040Z,57.47
2023-10-11T20:43:23.617Z,57.44
2023-10-11T20:45:20.499Z,57.51
2023-10-11T20:47:57.187Z,57.08
2023-10-11T20:50:43.101Z,57.06
2023-10-11T20:53:44.558Z,57.11
2023-10-11T20:57:07.759Z,57.18
2023-10-11T20:59:56.330Z,57.11
2023-10-11T21:02:49.290Z,56.95
2023-10-11T21:05:49.410Z,56.98
2023-10-11T21:08:37.486Z,56.92
2023-10-11T21:11:18.425Z,56.90
2023-10-11T21:13:51.138Z,56.67
2023-10-11T21:17:02.624Z,56.43
2023-10-11T21:20:13.602Z,56.32
2023-10-11T21:23:09.288Z,56.48
2023-10-11T21:26:05.967Z,56.31
2023-10-11T21:28:54.631Z,56.02
2023-10-11T21:31:36.378Z,55.88
2023-10-11T21:34:13.489Z,55.89
2023-10-11T21:36:58.016Z,55.73
2023-10-11T21:39:35.099Z,55.49
2023-10-11T21:42:08.642Z,55.05
2023-10-11T21:44:57.680Z,54.72
2023-10-11T21:47:38.192Z,54.53
2023-10-11T21:50:17.504Z,54.33
2023-10-11T21:53:17.488Z,54.44
2023-10-11T21:56:05.897Z,54.66
2023-10-11T21:58:56.392Z,55.03
2023-10-11T22:01:28.615Z,55.09
2023-10-11T22:04:01.634Z,55.43
2023-10-11T22:06:46.827Z,55.43
2023-10-11T22:10:24.367Z,55.34
2023-10-11T22:13:19.927Z,55.27
2023-10-11T22:16:09.108Z,55.16
2023-10-11T22:18:46.086Z,54.99
2023-10-11T22:21:41.212Z,55.74
2023-10-11T22:24:24.009Z,55.93
2023-10-11T22:26:56.876Z,56.17
2023-10-11T22:29:28.605Z,56.12
2023-10-11T22:31:59.977Z,55.77
2023-10-11T22:34:29.432Z,55.26
2023-10-11T22:37:14.060Z,55.35
2023-10-11T22:39:52.914Z,54.79
2023-10-11T22:42:22.980Z,54.89
2023-10-11T22:44:52.793Z,54.77
2023-10-11T22:47:21.838Z,54.83
2023-10-11T22:49:51.372Z,55.03
2023-10-11T22:52:21.309Z,54.81
2023-10-11T22:54:58.857Z,54.78
2023-10-11T22:57:28.287Z,54.94
2023-10-11T22:59:57.370Z,54.81
2023-10-11T23:02:27.415Z,54.97
2023-10-11T23:04:56.617Z,55.12
2023-10-11T23:07:28.330Z,55.01
2023-10-11T23:09:57.881Z,54.66
2023-10-11T23:12:34.547Z,54.59
2023-10-11T23:15:16.759Z,54.49
2023-10-11T23:17:51.815Z,54.33
2023-10-11T23:25:38.806Z,54.17
2023-10-11T23:28:08.479Z,54.29
2023-10-11T23:30:39.671Z,54.08
2023-10-11T23:33:17.552Z,54.35
2023-10-11T23:35:48.104Z,54.52
2023-10-11T23:41:32.200Z,54.33
2023-10-11T23:44:20.054Z,54.53
2023-10-11T23:47:12.221Z,54.46
2023-10-11T23:49:43.277Z,54.54
2023-10-11T23:52:15.706Z,54.51
2023-10-11T23:54:51.326Z,54.70
2023-10-11T23:57:25.151Z,54.35
